sensor_id;sensor_type;location;lat;lon;timestamp;P1;durP1;ratioP1;P2;durP2;ratioP2
64244;SDS011;50584;29.058;-110.966;2023-04-25T00:01:20;12.27;;;2.70;;
64244;SDS011;50584;29.058;-110.966;2023-04-25T00:03:47;7.75;;;1.80;;
64244;SDS011;50584;29.058;-110.966;2023-04-25T00:06:12;12.82;;;1.88;;
64244;SDS011;50584;29.058;-110.966;2023-04-25T00:08:39;9.70;;;1.60;;
64244;SDS011;50584;29.058;-110.966;2023-04-25T00:11:05;7.90;;;1.45;;
64244;SDS011;50584;29.058;-110.966;2023-04-25T00:13:30;10.68;;;2.47;;
64244;SDS011;50584;29.058;-110.966;2023-04-25T00:15:56;9.95;;;2.40;;
64244;SDS011;50584;29.058;-110.966;2023-04-25T00:18:23;6.43;;;2.03;;
64244;SDS011;50584;29.058;-110.966;2023-04-25T00:20:49;8.15;;;1.65;;
64244;SDS011;50584;29.058;-110.966;2023-04-25T00:23:17;17.60;;;1.92;;
64244;SDS011;50584;29.058;-110.966;2023-04-25T00:25:44;8.73;;;1.90;;
64244;SDS011;50584;29.058;-110.966;2023-04-25T00:28:10;4.72;;;1.50;;
64244;SDS011;50584;29.058;-110.966;2023-04-25T00:30:36;9.68;;;1.85;;
64244;SDS011;50584;29.058;-110.966;2023-04-25T00:33:02;6.75;;;1.50;;
64244;SDS011;50584;29.058;-110.966;2023-04-25T00:35:28;5.43;;;1.73;;
64244;SDS011;50584;29.058;-110.966;2023-04-25T00:37:53;10.75;;;1.50;;
64244;SDS011;50584;29.058;-110.966;2023-04-25T00:40:20;5.80;;;1.58;;
64244;SDS011;50584;29.058;-110.966;2023-04-25T00:42:46;10.38;;;1.70;;
64244;SDS011;50584;29.058;-110.966;2023-04-25T00:45:12;4.97;;;1.42;;
64244;SDS011;50584;29.058;-110.966;2023-04-25T00:47:39;9.38;;;1.92;;
64244;SDS011;50584;29.058;-110.966;2023-04-25T00:50:05;9.13;;;1.70;;
64244;SDS011;50584;29.058;-110.966;2023-04-25T00:52:34;8.10;;;1.67;;
64244;SDS011;50584;29.058;-110.966;2023-04-25T00:54:59;9.00;;;1.92;;
64244;SDS011;50584;29.058;-110.966;2023-04-25T00:57:26;11.50;;;2.10;;
64244;SDS011;50584;29.058;-110.966;2023-04-25T00:59:51;10.18;;;1.73;;
64244;SDS011;50584;29.058;-110.966;2023-04-25T01:02:18;5.47;;;1.80;;
64244;SDS011;50584;29.058;-110.966;2023-04-25T01:04:44;9.68;;;1.70;;
64244;SDS011;50584;29.058;-110.966;2023-04-25T01:07:10;6.45;;;1.80;;
64244;SDS011;50584;29.058;-110.966;2023-04-25T01:09:36;6.68;;;1.80;;
64244;SDS011;50584;29.058;-110.966;2023-04-25T01:12:02;14.10;;;1.73;;
64244;SDS011;50584;29.058;-110.966;2023-04-25T01:14:28;10.85;;;2.00;;
64244;SDS011;50584;29.058;-110.966;2023-04-25T01:16:55;19.73;;;3.08;;
64244;SDS011;50584;29.058;-110.966;2023-04-25T01:19:20;11.30;;;2.58;;
64244;SDS011;50584;29.058;-110.966;2023-04-25T01:21:46;11.88;;;1.80;;
64244;SDS011;50584;29.058;-110.966;2023-04-25T01:24:12;10.63;;;1.60;;
64244;SDS011;50584;29.058;-110.966;2023-04-25T01:26:39;12.80;;;2.30;;
64244;SDS011;50584;29.058;-110.966;2023-04-25T01:29:06;11.65;;;2.65;;
64244;SDS011;50584;29.058;-110.966;2023-04-25T01:31:32;6.85;;;2.53;;
64244;SDS011;50584;29.058;-110.966;2023-04-25T01:34:00;6.00;;;2.58;;
64244;SDS011;50584;29.058;-110.966;2023-04-25T01:36:26;9.13;;;2.33;;
64244;SDS011;50584;29.058;-110.966;2023-04-25T01:38:52;10.68;;;2.53;;
64244;SDS011;50584;29.058;-110.966;2023-04-25T01:41:18;13.02;;;2.40;;
64244;SDS011;50584;29.058;-110.966;2023-04-25T01:43:44;10.13;;;2.28;;
64244;SDS011;50584;29.058;-110.966;2023-04-25T01:46:10;9.73;;;1.98;;
64244;SDS011;50584;29.058;-110.966;2023-04-25T01:48:36;5.55;;;2.03;;
64244;SDS011;50584;29.058;-110.966;2023-04-25T01:51:02;10.70;;;2.42;;
64244;SDS011;50584;29.058;-110.966;2023-04-25T01:53:28;42.97;;;2.90;;
64244;SDS011;50584;29.058;-110.966;2023-04-25T01:55:54;14.52;;;2.03;;
64244;SDS011;50584;29.058;-110.966;2023-04-25T01:58:20;4.68;;;1.80;;
64244;SDS011;50584;29.058;-110.966;2023-04-25T02:00:46;11.48;;;2.20;;
64244;SDS011;50584;29.058;-110.966;2023-04-25T02:03:11;9.68;;;1.83;;
64244;SDS011;50584;29.058;-110.966;2023-04-25T02:05:37;6.68;;;2.22;;
64244;SDS011;50584;29.058;-110.966;2023-04-25T02:08:04;14.05;;;2.47;;
64244;SDS011;50584;29.058;-110.966;2023-04-25T02:10:31;10.27;;;2.05;;
64244;SDS011;50584;29.058;-110.966;2023-04-25T02:12:57;15.18;;;2.58;;
64244;SDS011;50584;29.058;-110.966;2023-04-25T02:15:23;8.23;;;2.05;;
64244;SDS011;50584;29.058;-110.966;2023-04-25T02:17:49;11.00;;;2.17;;
64244;SDS011;50584;29.058;-110.966;2023-04-25T02:20:15;16.27;;;2.63;;
64244;SDS011;50584;29.058;-110.966;2023-04-25T02:22:45;16.58;;;2.35;;
64244;SDS011;50584;29.058;-110.966;2023-04-25T02:25:11;5.85;;;1.80;;
64244;SDS011;50584;29.058;-110.966;2023-04-25T02:27:37;10.40;;;2.33;;
64244;SDS011;50584;29.058;-110.966;2023-04-25T02:30:03;20.35;;;2.78;;
64244;SDS011;50584;29.058;-110.966;2023-04-25T02:32:30;4.90;;;2.00;;
64244;SDS011;50584;29.058;-110.966;2023-04-25T02:34:55;9.60;;;2.30;;
64244;SDS011;50584;29.058;-110.966;2023-04-25T02:37:23;12.85;;;3.50;;
64244;SDS011;50584;29.058;-110.966;2023-04-25T02:39:49;9.73;;;2.17;;
64244;SDS011;50584;29.058;-110.966;2023-04-25T02:42:15;8.63;;;2.20;;
64244;SDS011;50584;29.058;-110.966;2023-04-25T02:44:41;6.30;;;1.50;;
64244;SDS011;50584;29.058;-110.966;2023-04-25T02:47:08;3.05;;;1.50;;
64244;SDS011;50584;29.058;-110.966;2023-04-25T02:49:34;5.32;;;1.30;;
64244;SDS011;50584;29.058;-110.966;2023-04-25T02:52:00;8.45;;;1.90;;
64244;SDS011;50584;29.058;-110.966;2023-04-25T02:54:25;7.75;;;1.70;;
64244;SDS011;50584;29.058;-110.966;2023-04-25T02:56:51;9.13;;;1.70;;
64244;SDS011;50584;29.058;-110.966;2023-04-25T02:59:17;9.05;;;2.22;;
64244;SDS011;50584;29.058;-110.966;2023-04-25T03:01:43;9.07;;;2.03;;
64244;SDS011;50584;29.058;-110.966;2023-04-25T03:04:09;10.38;;;2.40;;
64244;SDS011;50584;29.058;-110.966;2023-04-25T03:06:34;12.15;;;2.35;;
64244;SDS011;50584;29.058;-110.966;2023-04-25T03:09:00;9.20;;;2.00;;
64244;SDS011;50584;29.058;-110.966;2023-04-25T03:11:26;8.88;;;1.90;;
64244;SDS011;50584;29.058;-110.966;2023-04-25T03:13:52;7.78;;;1.75;;
64244;SDS011;50584;29.058;-110.966;2023-04-25T03:16:18;9.27;;;2.38;;
64244;SDS011;50584;29.058;-110.966;2023-04-25T03:18:44;9.70;;;2.17;;
64244;SDS011;50584;29.058;-110.966;2023-04-25T03:21:09;7.97;;;2.53;;
64244;SDS011;50584;29.058;-110.966;2023-04-25T03:23:35;9.20;;;2.35;;
64244;SDS011;50584;29.058;-110.966;2023-04-25T03:26:01;14.40;;;2.35;;
64244;SDS011;50584;29.058;-110.966;2023-04-25T03:28:27;6.40;;;1.90;;
64244;SDS011;50584;29.058;-110.966;2023-04-25T03:30:53;7.90;;;1.90;;
64244;SDS011;50584;29.058;-110.966;2023-04-25T03:33:19;4.90;;;1.73;;
64244;SDS011;50584;29.058;-110.966;2023-04-25T03:35:45;10.00;;;2.10;;
64244;SDS011;50584;29.058;-110.966;2023-04-25T03:38:11;6.90;;;1.80;;
64244;SDS011;50584;29.058;-110.966;2023-04-25T03:40:36;11.00;;;2.13;;
64244;SDS011;50584;29.058;-110.966;2023-04-25T03:43:02;8.68;;;1.77;;
64244;SDS011;50584;29.058;-110.966;2023-04-25T03:45:28;8.38;;;1.77;;
64244;SDS011;50584;29.058;-110.966;2023-04-25T03:47:54;11.85;;;1.80;;
64244;SDS011;50584;29.058;-110.966;2023-04-25T03:50:19;4.80;;;2.15;;
64244;SDS011;50584;29.058;-110.966;2023-04-25T03:52:45;7.40;;;2.47;;
64244;SDS011;50584;29.058;-110.966;2023-04-25T03:55:11;6.53;;;2.90;;
64244;SDS011;50584;29.058;-110.966;2023-04-25T03:57:37;15.23;;;2.88;;
64244;SDS011;50584;29.058;-110.966;2023-04-25T04:00:03;10.07;;;2.30;;
64244;SDS011;50584;29.058;-110.966;2023-04-25T04:02:29;7.82;;;2.33;;
64244;SDS011;50584;29.058;-110.966;2023-04-25T04:04:55;10.18;;;2.35;;
64244;SDS011;50584;29.058;-110.966;2023-04-25T04:07:21;14.70;;;3.00;;
64244;SDS011;50584;29.058;-110.966;2023-04-25T04:09:47;7.97;;;2.08;;
64244;SDS011;50584;29.058;-110.966;2023-04-25T04:12:13;13.10;;;2.70;;
64244;SDS011;50584;29.058;-110.966;2023-04-25T04:14:39;11.80;;;2.20;;
64244;SDS011;50584;29.058;-110.966;2023-04-25T04:17:05;11.02;;;2.22;;
64244;SDS011;50584;29.058;-110.966;2023-04-25T04:19:31;18.98;;;2.17;;
64244;SDS011;50584;29.058;-110.966;2023-04-25T04:21:57;6.32;;;1.98;;
64244;SDS011;50584;29.058;-110.966;2023-04-25T04:24:23;7.55;;;2.05;;
64244;SDS011;50584;29.058;-110.966;2023-04-25T04:26:49;3.70;;;2.33;;
64244;SDS011;50584;29.058;-110.966;2023-04-25T04:29:16;9.70;;;3.33;;
64244;SDS011;50584;29.058;-110.966;2023-04-25T04:31:49;9.63;;;2.50;;
64244;SDS011;50584;29.058;-110.966;2023-04-25T04:34:16;4.70;;;2.40;;
64244;SDS011;50584;29.058;-110.966;2023-04-25T04:36:43;3.53;;;2.42;;
64244;SDS011;50584;29.058;-110.966;2023-04-25T04:39:11;4.22;;;1.85;;
64244;SDS011;50584;29.058;-110.966;2023-04-25T04:41:37;5.43;;;1.73;;
64244;SDS011;50584;29.058;-110.966;2023-04-25T04:44:03;5.00;;;1.90;;
64244;SDS011;50584;29.058;-110.966;2023-04-25T04:46:29;5.45;;;2.08;;
64244;SDS011;50584;29.058;-110.966;2023-04-25T04:48:56;3.72;;;1.67;;
64244;SDS011;50584;29.058;-110.966;2023-04-25T04:51:22;5.85;;;2.45;;
64244;SDS011;50584;29.058;-110.966;2023-04-25T04:53:47;2.03;;;1.55;;
64244;SDS011;50584;29.058;-110.966;2023-04-25T04:56:13;5.07;;;1.58;;
64244;SDS011;50584;29.058;-110.966;2023-04-25T04:58:39;3.65;;;1.30;;
64244;SDS011;50584;29.058;-110.966;2023-04-25T05:01:05;4.40;;;1.85;;
64244;SDS011;50584;29.058;-110.966;2023-04-25T05:03:31;2.28;;;1.70;;
64244;SDS011;50584;29.058;-110.966;2023-04-25T05:05:56;3.10;;;1.67;;
64244;SDS011;50584;29.058;-110.966;2023-04-25T05:08:22;3.80;;;1.50;;
64244;SDS011;50584;29.058;-110.966;2023-04-25T05:10:48;6.88;;;1.85;;
64244;SDS011;50584;29.058;-110.966;2023-04-25T05:13:14;3.53;;;1.50;;
64244;SDS011;50584;29.058;-110.966;2023-04-25T05:15:40;5.60;;;1.60;;
64244;SDS011;50584;29.058;-110.966;2023-04-25T05:18:05;4.03;;;1.65;;
64244;SDS011;50584;29.058;-110.966;2023-04-25T05:20:31;4.15;;;1.40;;
64244;SDS011;50584;29.058;-110.966;2023-04-25T05:22:57;6.35;;;1.92;;
64244;SDS011;50584;29.058;-110.966;2023-04-25T05:25:23;3.80;;;1.80;;
64244;SDS011;50584;29.058;-110.966;2023-04-25T05:27:49;4.20;;;1.75;;
64244;SDS011;50584;29.058;-110.966;2023-04-25T05:30:16;4.38;;;2.42;;
64244;SDS011;50584;29.058;-110.966;2023-04-25T05:32:42;2.33;;;1.52;;
64244;SDS011;50584;29.058;-110.966;2023-04-25T05:35:07;3.78;;;1.80;;
64244;SDS011;50584;29.058;-110.966;2023-04-25T05:37:34;7.20;;;1.60;;
64244;SDS011;50584;29.058;-110.966;2023-04-25T05:39:59;5.60;;;1.70;;
64244;SDS011;50584;29.058;-110.966;2023-04-25T05:42:25;12.55;;;2.58;;
64244;SDS011;50584;29.058;-110.966;2023-04-25T05:44:51;17.60;;;3.38;;
64244;SDS011;50584;29.058;-110.966;2023-04-25T05:47:17;8.77;;;2.63;;
64244;SDS011;50584;29.058;-110.966;2023-04-25T05:49:42;16.58;;;3.67;;
64244;SDS011;50584;29.058;-110.966;2023-04-25T05:52:08;13.38;;;2.85;;
64244;SDS011;50584;29.058;-110.966;2023-04-25T05:54:34;27.67;;;3.83;;
64244;SDS011;50584;29.058;-110.966;2023-04-25T05:57:00;14.27;;;3.55;;
64244;SDS011;50584;29.058;-110.966;2023-04-25T05:59:27;15.93;;;3.05;;
64244;SDS011;50584;29.058;-110.966;2023-04-25T06:01:53;15.20;;;3.05;;
64244;SDS011;50584;29.058;-110.966;2023-04-25T06:04:20;10.52;;;2.05;;
64244;SDS011;50584;29.058;-110.966;2023-04-25T06:06:45;9.38;;;2.40;;
64244;SDS011;50584;29.058;-110.966;2023-04-25T06:09:11;4.70;;;1.38;;
64244;SDS011;50584;29.058;-110.966;2023-04-25T06:11:37;6.90;;;1.67;;
64244;SDS011;50584;29.058;-110.966;2023-04-25T06:14:03;4.72;;;1.63;;
64244;SDS011;50584;29.058;-110.966;2023-04-25T06:16:28;2.13;;;1.40;;
64244;SDS011;50584;29.058;-110.966;2023-04-25T06:18:54;4.93;;;1.55;;
64244;SDS011;50584;29.058;-110.966;2023-04-25T06:21:20;2.20;;;1.20;;
64244;SDS011;50584;29.058;-110.966;2023-04-25T06:23:46;1.70;;;1.30;;
64244;SDS011;50584;29.058;-110.966;2023-04-25T06:26:12;2.25;;;1.38;;
64244;SDS011;50584;29.058;-110.966;2023-04-25T06:28:37;5.18;;;1.50;;
64244;SDS011;50584;29.058;-110.966;2023-04-25T06:31:03;7.07;;;1.70;;
64244;SDS011;50584;29.058;-110.966;2023-04-25T06:33:29;8.82;;;2.00;;
64244;SDS011;50584;29.058;-110.966;2023-04-25T06:35:55;7.53;;;2.00;;
64244;SDS011;50584;29.058;-110.966;2023-04-25T06:38:21;6.35;;;2.00;;
64244;SDS011;50584;29.058;-110.966;2023-04-25T06:40:47;9.65;;;1.55;;
64244;SDS011;50584;29.058;-110.966;2023-04-25T06:43:12;3.08;;;1.40;;
64244;SDS011;50584;29.058;-110.966;2023-04-25T06:45:38;2.97;;;1.35;;
64244;SDS011;50584;29.058;-110.966;2023-04-25T06:48:04;5.57;;;1.42;;
64244;SDS011;50584;29.058;-110.966;2023-04-25T06:50:30;2.30;;;1.60;;
64244;SDS011;50584;29.058;-110.966;2023-04-25T06:52:55;10.48;;;1.75;;
64244;SDS011;50584;29.058;-110.966;2023-04-25T06:55:21;3.30;;;1.55;;
64244;SDS011;50584;29.058;-110.966;2023-04-25T06:57:47;8.13;;;1.52;;
64244;SDS011;50584;29.058;-110.966;2023-04-25T07:00:13;15.93;;;2.60;;
64244;SDS011;50584;29.058;-110.966;2023-04-25T07:02:39;27.65;;;4.80;;
64244;SDS011;50584;29.058;-110.966;2023-04-25T07:05:05;15.80;;;4.60;;
64244;SDS011;50584;29.058;-110.966;2023-04-25T07:07:31;23.77;;;6.85;;
64244;SDS011;50584;29.058;-110.966;2023-04-25T07:09:57;31.05;;;7.00;;
64244;SDS011;50584;29.058;-110.966;2023-04-25T07:12:23;23.98;;;7.47;;
64244;SDS011;50584;29.058;-110.966;2023-04-25T07:14:48;22.92;;;8.18;;
64244;SDS011;50584;29.058;-110.966;2023-04-25T07:17:14;29.40;;;8.13;;
64244;SDS011;50584;29.058;-110.966;2023-04-25T07:19:40;19.35;;;7.43;;
64244;SDS011;50584;29.058;-110.966;2023-04-25T07:22:06;22.15;;;7.63;;
64244;SDS011;50584;29.058;-110.966;2023-04-25T07:24:32;14.90;;;6.57;;
64244;SDS011;50584;29.058;-110.966;2023-04-25T07:26:58;16.25;;;6.68;;
64244;SDS011;50584;29.058;-110.966;2023-04-25T07:29:23;26.30;;;6.68;;
64244;SDS011;50584;29.058;-110.966;2023-04-25T07:31:49;15.27;;;4.65;;
64244;SDS011;50584;29.058;-110.966;2023-04-25T07:34:15;17.92;;;5.07;;
64244;SDS011;50584;29.058;-110.966;2023-04-25T07:36:41;14.15;;;5.00;;
64244;SDS011;50584;29.058;-110.966;2023-04-25T07:39:07;11.40;;;4.28;;
64244;SDS011;50584;29.058;-110.966;2023-04-25T07:41:34;14.35;;;3.67;;
64244;SDS011;50584;29.058;-110.966;2023-04-25T07:44:00;12.25;;;3.88;;
64244;SDS011;50584;29.058;-110.966;2023-04-25T07:46:25;13.65;;;4.18;;
64244;SDS011;50584;29.058;-110.966;2023-04-25T07:48:51;20.60;;;4.28;;
64244;SDS011;50584;29.058;-110.966;2023-04-25T07:51:17;11.90;;;3.88;;
64244;SDS011;50584;29.058;-110.966;2023-04-25T07:53:45;14.65;;;3.70;;
64244;SDS011;50584;29.058;-110.966;2023-04-25T07:56:11;11.05;;;3.90;;
64244;SDS011;50584;29.058;-110.966;2023-04-25T07:58:37;6.35;;;3.47;;
64244;SDS011;50584;29.058;-110.966;2023-04-25T08:01:03;14.38;;;3.80;;
64244;SDS011;50584;29.058;-110.966;2023-04-25T08:03:29;15.65;;;4.45;;
64244;SDS011;50584;29.058;-110.966;2023-04-25T08:05:55;12.23;;;4.38;;
64244;SDS011;50584;29.058;-110.966;2023-04-25T08:08:21;20.40;;;4.40;;
64244;SDS011;50584;29.058;-110.966;2023-04-25T08:10:46;12.77;;;4.60;;
64244;SDS011;50584;29.058;-110.966;2023-04-25T08:13:13;14.25;;;3.85;;
64244;SDS011;50584;29.058;-110.966;2023-04-25T08:15:39;9.98;;;3.58;;
64244;SDS011;50584;29.058;-110.966;2023-04-25T08:18:05;12.30;;;4.28;;
64244;SDS011;50584;29.058;-110.966;2023-04-25T08:20:31;17.10;;;4.03;;
64244;SDS011;50584;29.058;-110.966;2023-04-25T08:22:56;15.18;;;3.60;;
64244;SDS011;50584;29.058;-110.966;2023-04-25T08:25:22;15.25;;;4.78;;
64244;SDS011;50584;29.058;-110.966;2023-04-25T08:27:48;13.55;;;3.70;;
64244;SDS011;50584;29.058;-110.966;2023-04-25T08:30:14;10.68;;;3.50;;
64244;SDS011;50584;29.058;-110.966;2023-04-25T08:32:39;9.43;;;3.58;;
64244;SDS011;50584;29.058;-110.966;2023-04-25T08:35:05;18.42;;;3.90;;
64244;SDS011;50584;29.058;-110.966;2023-04-25T08:37:32;16.00;;;3.53;;
64244;SDS011;50584;29.058;-110.966;2023-04-25T08:39:58;7.97;;;3.65;;
64244;SDS011;50584;29.058;-110.966;2023-04-25T08:42:24;11.05;;;3.88;;
64244;SDS011;50584;29.058;-110.966;2023-04-25T08:44:50;14.85;;;3.80;;
64244;SDS011;50584;29.058;-110.966;2023-04-25T08:47:16;9.68;;;3.83;;
64244;SDS011;50584;29.058;-110.966;2023-04-25T08:49:44;8.57;;;3.58;;
64244;SDS011;50584;29.058;-110.966;2023-04-25T08:52:11;8.50;;;3.53;;
64244;SDS011;50584;29.058;-110.966;2023-04-25T08:54:38;4.60;;;3.20;;
64244;SDS011;50584;29.058;-110.966;2023-04-25T08:57:08;14.53;;;4.47;;
64244;SDS011;50584;29.058;-110.966;2023-04-25T08:59:34;23.60;;;6.30;;
64244;SDS011;50584;29.058;-110.966;2023-04-25T09:02:02;21.75;;;7.68;;
64244;SDS011;50584;29.058;-110.966;2023-04-25T09:04:30;24.95;;;9.70;;
64244;SDS011;50584;29.058;-110.966;2023-04-25T09:06:56;24.48;;;9.25;;
64244;SDS011;50584;29.058;-110.966;2023-04-25T09:09:22;14.80;;;6.30;;
64244;SDS011;50584;29.058;-110.966;2023-04-25T09:11:48;24.10;;;8.75;;
64244;SDS011;50584;29.058;-110.966;2023-04-25T09:14:19;28.67;;;12.25;;
64244;SDS011;50584;29.058;-110.966;2023-04-25T09:19:25;26.05;;;11.40;;
64244;SDS011;50584;29.058;-110.966;2023-04-25T09:21:53;28.13;;;10.68;;
64244;SDS011;50584;29.058;-110.966;2023-04-25T09:24:42;23.90;;;10.57;;
64244;SDS011;50584;29.058;-110.966;2023-04-25T09:27:06;22.23;;;8.32;;
64244;SDS011;50584;29.058;-110.966;2023-04-25T09:29:33;15.52;;;6.93;;
64244;SDS011;50584;29.058;-110.966;2023-04-25T09:34:45;16.08;;;6.75;;
64244;SDS011;50584;29.058;-110.966;2023-04-25T09:37:16;8.32;;;4.18;;
64244;SDS011;50584;29.058;-110.966;2023-04-25T09:39:44;9.65;;;5.10;;
64244;SDS011;50584;29.058;-110.966;2023-04-25T09:42:09;9.30;;;5.00;;
64244;SDS011;50584;29.058;-110.966;2023-04-25T09:44:35;9.30;;;4.75;;
64244;SDS011;50584;29.058;-110.966;2023-04-25T09:47:01;10.50;;;4.38;;
64244;SDS011;50584;29.058;-110.966;2023-04-25T09:49:28;17.88;;;5.40;;
64244;SDS011;50584;29.058;-110.966;2023-04-25T09:51:54;21.85;;;5.15;;
64244;SDS011;50584;29.058;-110.966;2023-04-25T09:54:21;10.55;;;4.07;;
64244;SDS011;50584;29.058;-110.966;2023-04-25T09:56:46;8.13;;;4.20;;
64244;SDS011;50584;29.058;-110.966;2023-04-25T09:59:13;12.15;;;3.65;;
64244;SDS011;50584;29.058;-110.966;2023-04-25T10:01:40;14.85;;;3.20;;
64244;SDS011;50584;29.058;-110.966;2023-04-25T10:04:06;10.88;;;2.90;;
64244;SDS011;50584;29.058;-110.966;2023-04-25T10:06:34;5.80;;;2.40;;
64244;SDS011;50584;29.058;-110.966;2023-04-25T10:09:00;10.88;;;2.60;;
64244;SDS011;50584;29.058;-110.966;2023-04-25T10:11:28;10.68;;;2.63;;
64244;SDS011;50584;29.058;-110.966;2023-04-25T10:13:55;7.60;;;2.83;;
64244;SDS011;50584;29.058;-110.966;2023-04-25T10:16:21;10.50;;;2.13;;
64244;SDS011;50584;29.058;-110.966;2023-04-25T10:18:47;3.90;;;1.70;;
64244;SDS011;50584;29.058;-110.966;2023-04-25T10:21:13;8.07;;;1.95;;
64244;SDS011;50584;29.058;-110.966;2023-04-25T10:23:40;4.75;;;1.80;;
64244;SDS011;50584;29.058;-110.966;2023-04-25T10:26:06;7.70;;;1.83;;
64244;SDS011;50584;29.058;-110.966;2023-04-25T10:31:22;10.65;;;1.80;;
64244;SDS011;50584;29.058;-110.966;2023-04-25T10:33:48;2.97;;;1.88;;
64244;SDS011;50584;29.058;-110.966;2023-04-25T10:36:17;9.50;;;2.25;;
64244;SDS011;50584;29.058;-110.966;2023-04-25T10:38:43;9.93;;;2.60;;
64244;SDS011;50584;29.058;-110.966;2023-04-25T10:41:10;7.25;;;2.33;;
64244;SDS011;50584;29.058;-110.966;2023-04-25T10:43:43;8.77;;;2.40;;
64244;SDS011;50584;29.058;-110.966;2023-04-25T10:46:13;9.18;;;2.10;;
64244;SDS011;50584;29.058;-110.966;2023-04-25T10:48:43;7.50;;;3.20;;
64244;SDS011;50584;29.058;-110.966;2023-04-25T10:53:35;5.13;;;2.35;;
64244;SDS011;50584;29.058;-110.966;2023-04-25T10:56:09;5.53;;;2.15;;
64244;SDS011;50584;29.058;-110.966;2023-04-25T10:58:35;8.45;;;2.00;;
64244;SDS011;50584;29.058;-110.966;2023-04-25T11:01:01;6.70;;;2.10;;
64244;SDS011;50584;29.058;-110.966;2023-04-25T11:03:26;6.32;;;2.10;;
64244;SDS011;50584;29.058;-110.966;2023-04-25T11:05:52;2.65;;;1.70;;
64244;SDS011;50584;29.058;-110.966;2023-04-25T11:08:20;4.28;;;2.17;;
64244;SDS011;50584;29.058;-110.966;2023-04-25T11:10:50;7.40;;;2.13;;
64244;SDS011;50584;29.058;-110.966;2023-04-25T11:13:16;4.65;;;2.10;;
64244;SDS011;50584;29.058;-110.966;2023-04-25T11:15:43;10.40;;;2.30;;
64244;SDS011;50584;29.058;-110.966;2023-04-25T11:18:09;6.13;;;2.30;;
64244;SDS011;50584;29.058;-110.966;2023-04-25T11:20:35;6.55;;;2.30;;
64244;SDS011;50584;29.058;-110.966;2023-04-25T11:23:00;10.30;;;2.33;;
64244;SDS011;50584;29.058;-110.966;2023-04-25T11:25:26;5.25;;;2.03;;
64244;SDS011;50584;29.058;-110.966;2023-04-25T11:27:54;7.50;;;2.38;;
64244;SDS011;50584;29.058;-110.966;2023-04-25T11:30:20;4.40;;;2.50;;
64244;SDS011;50584;29.058;-110.966;2023-04-25T11:32:46;8.25;;;2.75;;
64244;SDS011;50584;29.058;-110.966;2023-04-25T11:35:12;6.38;;;2.60;;
64244;SDS011;50584;29.058;-110.966;2023-04-25T11:37:39;10.02;;;3.35;;
64244;SDS011;50584;29.058;-110.966;2023-04-25T11:40:05;14.30;;;3.70;;
64244;SDS011;50584;29.058;-110.966;2023-04-25T11:42:43;15.82;;;4.60;;
64244;SDS011;50584;29.058;-110.966;2023-04-25T11:45:09;13.25;;;3.15;;
64244;SDS011;50584;29.058;-110.966;2023-04-25T11:47:35;12.02;;;6.68;;
64244;SDS011;50584;29.058;-110.966;2023-04-25T11:50:02;19.98;;;5.75;;
64244;SDS011;50584;29.058;-110.966;2023-04-25T11:52:38;16.33;;;7.72;;
64244;SDS011;50584;29.058;-110.966;2023-04-25T11:55:05;22.48;;;8.00;;
64244;SDS011;50584;29.058;-110.966;2023-04-25T11:57:32;22.42;;;8.07;;
64244;SDS011;50584;29.058;-110.966;2023-04-25T12:00:08;17.85;;;8.73;;
64244;SDS011;50584;29.058;-110.966;2023-04-25T12:02:39;26.77;;;7.90;;
64244;SDS011;50584;29.058;-110.966;2023-04-25T12:05:06;23.83;;;12.38;;
64244;SDS011;50584;29.058;-110.966;2023-04-25T12:07:33;31.75;;;10.75;;
64244;SDS011;50584;29.058;-110.966;2023-04-25T12:09:59;22.40;;;12.80;;
64244;SDS011;50584;29.058;-110.966;2023-04-25T12:12:32;41.58;;;15.27;;
64244;SDS011;50584;29.058;-110.966;2023-04-25T12:15:08;33.97;;;15.73;;
64244;SDS011;50584;29.058;-110.966;2023-04-25T12:17:34;28.35;;;13.93;;
64244;SDS011;50584;29.058;-110.966;2023-04-25T12:20:05;31.83;;;12.35;;
64244;SDS011;50584;29.058;-110.966;2023-04-25T12:22:31;38.50;;;16.85;;
64244;SDS011;50584;29.058;-110.966;2023-04-25T12:24:57;29.63;;;15.07;;
64244;SDS011;50584;29.058;-110.966;2023-04-25T12:27:23;40.10;;;16.40;;
64244;SDS011;50584;29.058;-110.966;2023-04-25T12:29:54;25.83;;;13.45;;
64244;SDS011;50584;29.058;-110.966;2023-04-25T12:32:21;38.50;;;17.35;;
64244;SDS011;50584;29.058;-110.966;2023-04-25T12:34:46;32.40;;;15.60;;
64244;SDS011;50584;29.058;-110.966;2023-04-25T12:37:12;36.70;;;17.20;;
64244;SDS011;50584;29.058;-110.966;2023-04-25T12:39:38;32.58;;;13.27;;
64244;SDS011;50584;29.058;-110.966;2023-04-25T12:42:04;47.50;;;14.75;;
64244;SDS011;50584;29.058;-110.966;2023-04-25T12:44:33;49.65;;;14.60;;
64244;SDS011;50584;29.058;-110.966;2023-04-25T12:46:58;43.90;;;14.10;;
64244;SDS011;50584;29.058;-110.966;2023-04-25T12:49:25;30.33;;;12.90;;
64244;SDS011;50584;29.058;-110.966;2023-04-25T12:51:51;29.50;;;14.10;;
64244;SDS011;50584;29.058;-110.966;2023-04-25T12:54:17;37.40;;;13.95;;
64244;SDS011;50584;29.058;-110.966;2023-04-25T12:56:42;28.63;;;14.05;;
64244;SDS011;50584;29.058;-110.966;2023-04-25T12:59:08;33.45;;;15.18;;
64244;SDS011;50584;29.058;-110.966;2023-04-25T13:01:34;40.67;;;15.80;;
64244;SDS011;50584;29.058;-110.966;2023-04-25T13:04:00;39.53;;;15.50;;
64244;SDS011;50584;29.058;-110.966;2023-04-25T13:06:26;33.88;;;14.90;;
64244;SDS011;50584;29.058;-110.966;2023-04-25T13:08:52;37.80;;;15.25;;
64244;SDS011;50584;29.058;-110.966;2023-04-25T13:11:18;39.28;;;16.27;;
64244;SDS011;50584;29.058;-110.966;2023-04-25T13:13:44;32.05;;;15.48;;
64244;SDS011;50584;29.058;-110.966;2023-04-25T13:16:10;36.50;;;16.13;;
64244;SDS011;50584;29.058;-110.966;2023-04-25T13:18:35;36.22;;;16.25;;
64244;SDS011;50584;29.058;-110.966;2023-04-25T13:21:01;33.15;;;15.90;;
64244;SDS011;50584;29.058;-110.966;2023-04-25T13:23:28;43.90;;;18.38;;
64244;SDS011;50584;29.058;-110.966;2023-04-25T13:25:54;41.22;;;16.55;;
64244;SDS011;50584;29.058;-110.966;2023-04-25T13:28:20;34.75;;;17.60;;
64244;SDS011;50584;29.058;-110.966;2023-04-25T13:30:46;38.72;;;16.60;;
64244;SDS011;50584;29.058;-110.966;2023-04-25T13:33:13;33.55;;;16.95;;
64244;SDS011;50584;29.058;-110.966;2023-04-25T13:35:39;42.08;;;17.13;;
64244;SDS011;50584;29.058;-110.966;2023-04-25T13:38:05;47.53;;;17.70;;
64244;SDS011;50584;29.058;-110.966;2023-04-25T13:40:31;45.25;;;16.70;;
64244;SDS011;50584;29.058;-110.966;2023-04-25T13:42:57;33.40;;;17.17;;
64244;SDS011;50584;29.058;-110.966;2023-04-25T13:45:23;40.10;;;16.33;;
64244;SDS011;50584;29.058;-110.966;2023-04-25T13:47:49;96.80;;;32.33;;
64244;SDS011;50584;29.058;-110.966;2023-04-25T13:50:15;54.97;;;19.27;;
64244;SDS011;50584;29.058;-110.966;2023-04-25T13:52:41;34.78;;;16.45;;
64244;SDS011;50584;29.058;-110.966;2023-04-25T13:55:07;43.58;;;16.35;;
64244;SDS011;50584;29.058;-110.966;2023-04-25T13:57:34;40.47;;;16.60;;
64244;SDS011;50584;29.058;-110.966;2023-04-25T14:00:00;37.63;;;16.27;;
64244;SDS011;50584;29.058;-110.966;2023-04-25T14:02:30;43.72;;;17.00;;
64244;SDS011;50584;29.058;-110.966;2023-04-25T14:04:55;36.88;;;20.88;;
64244;SDS011;50584;29.058;-110.966;2023-04-25T14:07:21;43.40;;;17.70;;